Aérodrome :
LOGIN :

S'inscrire | Disclaimer

   EN    FR    IT 

 










Légende :    VFR   VFR Marginal   IFR   IFR Intensif   IFR Très Intensif
Visi : 
Plafond : 
>= 8 km
>= 3000ft
5 à 8 km
1000 à 3000 ft
1500m à 5 km
500 à 1000 ft
800 à 1500m
200 à 500 ft
< 800m
< 200 ft
Symboles :   Orages  Brouillard  Fortes neiges  Fortes précipitations  Vent > 20 kt
SIGMETs :   Divers  Orages  Givrage  Turbulence  Onde Orograph.  Cendres Volcan.







- Altitude de l'aérodrome : 278 ft
- Code IATA : RJK


LDRI - Rijeka

DERNIER METAR :
  • 100100Z 05004KT 9999 FEW033 09/08 Q1008

METARs EXPIRÉS :
  • 100030Z VRB02KT 9999 FEW033 09/07 Q1008
  • 100000Z VRB02KT 9999 FEW033 08/07 Q1008
  • 092330Z 13005KT 9999 FEW033 09/07 Q1008
  • 092300Z 12005KT 9999 FEW033 08/07 Q1008

TAF TAF LDRI
Valide du 10 à 00h jusqu'au 11 à 00h UTC


092325Z 1000/1100 32005KT 9999 SCT035 TX12/1013Z TN04/1005Z
PROB30
TEMPO 1006/1018 04010KT
Pas de NOTAMs connus pour ce terrain.
1 SIGMET publié pour la FIR Zagreb (LDZO) :
 
Turbulence forte
LDZO SIGMET 1 VALID 100100/100400 LDZA
LDZO ZAGREB FIR SEV TURB FCST WI N4353 E01637 - N4223 E01830 - N4123 E01821 - N4223 E01618 - N4328 E01434 - N4353 E01637 FL210/360 STNR WKN=



MET'MAP, la Météo Aéronautique d'un coup d'oeil ! - Copyright ORBIFLY Décembre 2007 - Disclaimer

ORBIFLY MET'MAP TEAM :

Programmation & Développement : Alexandra Zaïnal
Conception & Développement : Baudouin d'Aumeries
Co-Programmation & Développement : Marc-Olivier Méhu
Soutien technique & logistique : Manuel Goepfert

Contact : metmap@orbifly.com




SOURCES & CREDITS :

   NOAA